sensor_id;sensor_type;location;lat;lon;timestamp;P1;durP1;ratioP1;P2;durP2;ratioP2
57023;SDS011;42916;54.346;18.562;2022-09-01T00:01:32;3.20;;;2.30;;
57023;SDS011;42916;54.346;18.562;2022-09-01T00:03:59;2.90;;;1.50;;
57023;SDS011;42916;54.346;18.562;2022-09-01T00:06:30;3.70;;;1.80;;
57023;SDS011;42916;54.346;18.562;2022-09-01T00:11:27;3.20;;;1.50;;
57023;SDS011;42916;54.346;18.562;2022-09-01T00:13:54;2.40;;;1.30;;
57023;SDS011;42916;54.346;18.562;2022-09-01T00:16:22;2.80;;;1.80;;
57023;SDS011;42916;54.346;18.562;2022-09-01T00:18:50;3.70;;;1.70;;
57023;SDS011;42916;54.346;18.562;2022-09-01T00:21:24;2.20;;;1.20;;
57023;SDS011;42916;54.346;18.562;2022-09-01T00:23:53;3.00;;;1.50;;
57023;SDS011;42916;54.346;18.562;2022-09-01T00:26:20;4.50;;;1.70;;
57023;SDS011;42916;54.346;18.562;2022-09-01T00:28:46;2.20;;;1.40;;
57023;SDS011;42916;54.346;18.562;2022-09-01T00:31:13;4.00;;;1.60;;
57023;SDS011;42916;54.346;18.562;2022-09-01T00:33:40;4.00;;;1.60;;
57023;SDS011;42916;54.346;18.562;2022-09-01T00:36:07;3.80;;;1.50;;
57023;SDS011;42916;54.346;18.562;2022-09-01T00:38:35;3.30;;;1.40;;
57023;SDS011;42916;54.346;18.562;2022-09-01T00:41:03;4.20;;;1.30;;
57023;SDS011;42916;54.346;18.562;2022-09-01T00:43:41;5.80;;;1.60;;
57023;SDS011;42916;54.346;18.562;2022-09-01T00:46:14;2.10;;;1.20;;
57023;SDS011;42916;54.346;18.562;2022-09-01T00:48:45;2.10;;;1.10;;
57023;SDS011;42916;54.346;18.562;2022-09-01T00:51:14;2.30;;;1.20;;
57023;SDS011;42916;54.346;18.562;2022-09-01T00:53:41;3.10;;;1.20;;
57023;SDS011;42916;54.346;18.562;2022-09-01T00:56:11;4.00;;;1.00;;
57023;SDS011;42916;54.346;18.562;2022-09-01T00:58:39;3.20;;;1.00;;
57023;SDS011;42916;54.346;18.562;2022-09-01T01:01:07;2.60;;;1.10;;
57023;SDS011;42916;54.346;18.562;2022-09-01T01:03:35;3.00;;;0.90;;
57023;SDS011;42916;54.346;18.562;2022-09-01T01:06:04;0.90;;;0.80;;
57023;SDS011;42916;54.346;18.562;2022-09-01T01:08:35;0.80;;;0.60;;
57023;SDS011;42916;54.346;18.562;2022-09-01T01:11:12;3.10;;;0.80;;
57023;SDS011;42916;54.346;18.562;2022-09-01T01:13:48;0.90;;;0.70;;
57023;SDS011;42916;54.346;18.562;2022-09-01T01:16:23;3.00;;;0.80;;
57023;SDS011;42916;54.346;18.562;2022-09-01T01:18:51;2.30;;;0.80;;
57023;SDS011;42916;54.346;18.562;2022-09-01T01:21:22;1.50;;;0.90;;
57023;SDS011;42916;54.346;18.562;2022-09-01T01:26:45;2.50;;;0.60;;
57023;SDS011;42916;54.346;18.562;2022-09-01T01:29:13;1.10;;;0.60;;
57023;SDS011;42916;54.346;18.562;2022-09-01T01:31:41;0.50;;;0.40;;
57023;SDS011;42916;54.346;18.562;2022-09-01T01:34:08;1.20;;;0.60;;
57023;SDS011;42916;54.346;18.562;2022-09-01T01:36:37;1.50;;;0.60;;
57023;SDS011;42916;54.346;18.562;2022-09-01T01:41:35;1.30;;;0.60;;
57023;SDS011;42916;54.346;18.562;2022-09-01T01:44:08;1.30;;;0.60;;
57023;SDS011;42916;54.346;18.562;2022-09-01T01:46:39;2.20;;;0.60;;
57023;SDS011;42916;54.346;18.562;2022-09-01T01:49:09;1.30;;;0.60;;
57023;SDS011;42916;54.346;18.562;2022-09-01T01:51:44;1.90;;;0.60;;
57023;SDS011;42916;54.346;18.562;2022-09-01T01:54:13;1.60;;;0.70;;
57023;SDS011;42916;54.346;18.562;2022-09-01T01:56:40;2.00;;;0.70;;
57023;SDS011;42916;54.346;18.562;2022-09-01T01:59:07;2.00;;;0.60;;
57023;SDS011;42916;54.346;18.562;2022-09-01T02:01:37;1.40;;;0.60;;
57023;SDS011;42916;54.346;18.562;2022-09-01T02:04:05;2.00;;;0.70;;
57023;SDS011;42916;54.346;18.562;2022-09-01T02:06:33;1.60;;;0.60;;
57023;SDS011;42916;54.346;18.562;2022-09-01T02:09:00;0.90;;;0.70;;
57023;SDS011;42916;54.346;18.562;2022-09-01T02:11:28;1.10;;;0.50;;
57023;SDS011;42916;54.346;18.562;2022-09-01T02:13:59;1.60;;;0.70;;
57023;SDS011;42916;54.346;18.562;2022-09-01T02:16:27;1.20;;;0.60;;
57023;SDS011;42916;54.346;18.562;2022-09-01T02:18:56;1.70;;;0.70;;
57023;SDS011;42916;54.346;18.562;2022-09-01T02:21:23;2.50;;;0.60;;
57023;SDS011;42916;54.346;18.562;2022-09-01T02:23:53;1.70;;;0.60;;
57023;SDS011;42916;54.346;18.562;2022-09-01T02:26:32;1.90;;;0.60;;
57023;SDS011;42916;54.346;18.562;2022-09-01T02:29:09;1.10;;;0.50;;
57023;SDS011;42916;54.346;18.562;2022-09-01T02:31:44;1.90;;;0.80;;
57023;SDS011;42916;54.346;18.562;2022-09-01T02:34:12;1.20;;;0.50;;
57023;SDS011;42916;54.346;18.562;2022-09-01T02:36:40;1.30;;;0.60;;
57023;SDS011;42916;54.346;18.562;2022-09-01T02:39:14;0.40;;;0.40;;
57023;SDS011;42916;54.346;18.562;2022-09-01T02:41:42;0.40;;;0.40;;
57023;SDS011;42916;54.346;18.562;2022-09-01T02:44:09;1.80;;;0.70;;
57023;SDS011;42916;54.346;18.562;2022-09-01T02:46:41;1.80;;;0.40;;
57023;SDS011;42916;54.346;18.562;2022-09-01T02:49:13;1.50;;;0.60;;
57023;SDS011;42916;54.346;18.562;2022-09-01T02:51:43;1.40;;;0.60;;
57023;SDS011;42916;54.346;18.562;2022-09-01T02:54:12;1.60;;;0.60;;
57023;SDS011;42916;54.346;18.562;2022-09-01T02:56:43;1.30;;;0.50;;
57023;SDS011;42916;54.346;18.562;2022-09-01T02:59:16;0.60;;;0.60;;
57023;SDS011;42916;54.346;18.562;2022-09-01T03:01:47;1.10;;;0.50;;
57023;SDS011;42916;54.346;18.562;2022-09-01T03:04:16;1.10;;;0.60;;
57023;SDS011;42916;54.346;18.562;2022-09-01T03:06:43;1.30;;;0.70;;
57023;SDS011;42916;54.346;18.562;2022-09-01T03:09:12;2.70;;;0.70;;
57023;SDS011;42916;54.346;18.562;2022-09-01T03:11:41;3.00;;;0.80;;
57023;SDS011;42916;54.346;18.562;2022-09-01T03:14:10;0.50;;;0.50;;
57023;SDS011;42916;54.346;18.562;2022-09-01T03:16:38;1.10;;;0.60;;
57023;SDS011;42916;54.346;18.562;2022-09-01T03:19:06;2.20;;;0.70;;
57023;SDS011;42916;54.346;18.562;2022-09-01T03:21:35;1.10;;;0.60;;
57023;SDS011;42916;54.346;18.562;2022-09-01T03:24:05;0.90;;;0.80;;
57023;SDS011;42916;54.346;18.562;2022-09-01T03:26:34;4.00;;;0.70;;
57023;SDS011;42916;54.346;18.562;2022-09-01T03:29:02;0.50;;;0.40;;
57023;SDS011;42916;54.346;18.562;2022-09-01T03:31:29;1.30;;;0.80;;
57023;SDS011;42916;54.346;18.562;2022-09-01T03:33:57;0.90;;;0.60;;
57023;SDS011;42916;54.346;18.562;2022-09-01T03:36:29;1.60;;;0.60;;
57023;SDS011;42916;54.346;18.562;2022-09-01T03:38:59;0.70;;;0.40;;
57023;SDS011;42916;54.346;18.562;2022-09-01T03:41:28;0.60;;;0.50;;
57023;SDS011;42916;54.346;18.562;2022-09-01T03:43:56;3.00;;;1.00;;
57023;SDS011;42916;54.346;18.562;2022-09-01T03:46:26;1.10;;;0.60;;
57023;SDS011;42916;54.346;18.562;2022-09-01T03:48:56;0.60;;;0.50;;
57023;SDS011;42916;54.346;18.562;2022-09-01T03:51:28;1.40;;;0.70;;
57023;SDS011;42916;54.346;18.562;2022-09-01T03:53:56;2.40;;;0.60;;
57023;SDS011;42916;54.346;18.562;2022-09-01T03:56:27;2.30;;;0.80;;
57023;SDS011;42916;54.346;18.562;2022-09-01T03:58:55;2.20;;;0.60;;
57023;SDS011;42916;54.346;18.562;2022-09-01T04:01:24;0.80;;;0.60;;
57023;SDS011;42916;54.346;18.562;2022-09-01T04:03:52;2.40;;;0.50;;
57023;SDS011;42916;54.346;18.562;2022-09-01T04:06:23;1.80;;;0.70;;
57023;SDS011;42916;54.346;18.562;2022-09-01T04:08:51;1.80;;;0.60;;
57023;SDS011;42916;54.346;18.562;2022-09-01T04:11:29;1.30;;;0.60;;
57023;SDS011;42916;54.346;18.562;2022-09-01T04:13:57;0.90;;;0.60;;
57023;SDS011;42916;54.346;18.562;2022-09-01T04:16:25;2.00;;;0.70;;
57023;SDS011;42916;54.346;18.562;2022-09-01T04:19:13;1.40;;;0.60;;
57023;SDS011;42916;54.346;18.562;2022-09-01T04:21:46;1.10;;;0.50;;
57023;SDS011;42916;54.346;18.562;2022-09-01T04:24:17;0.90;;;0.50;;
57023;SDS011;42916;54.346;18.562;2022-09-01T04:26:46;1.70;;;0.60;;
57023;SDS011;42916;54.346;18.562;2022-09-01T04:29:15;0.80;;;0.50;;
57023;SDS011;42916;54.346;18.562;2022-09-01T04:31:49;1.40;;;0.80;;
57023;SDS011;42916;54.346;18.562;2022-09-01T04:34:18;2.10;;;0.80;;
57023;SDS011;42916;54.346;18.562;2022-09-01T04:36:47;1.70;;;0.70;;
57023;SDS011;42916;54.346;18.562;2022-09-01T04:39:14;1.00;;;0.50;;
57023;SDS011;42916;54.346;18.562;2022-09-01T04:41:43;1.80;;;0.60;;
57023;SDS011;42916;54.346;18.562;2022-09-01T04:44:16;2.50;;;0.60;;
57023;SDS011;42916;54.346;18.562;2022-09-01T04:46:45;1.10;;;0.60;;
57023;SDS011;42916;54.346;18.562;2022-09-01T04:49:16;1.90;;;1.10;;
57023;SDS011;42916;54.346;18.562;2022-09-01T04:51:48;1.50;;;0.60;;
57023;SDS011;42916;54.346;18.562;2022-09-01T04:54:17;2.10;;;0.60;;
57023;SDS011;42916;54.346;18.562;2022-09-01T04:56:46;1.90;;;0.60;;
57023;SDS011;42916;54.346;18.562;2022-09-01T04:59:17;0.70;;;0.70;;
57023;SDS011;42916;54.346;18.562;2022-09-01T05:01:50;0.50;;;0.50;;
57023;SDS011;42916;54.346;18.562;2022-09-01T05:06:51;1.60;;;0.50;;
57023;SDS011;42916;54.346;18.562;2022-09-01T05:09:22;1.70;;;0.70;;
57023;SDS011;42916;54.346;18.562;2022-09-01T05:12:00;1.00;;;0.50;;
57023;SDS011;42916;54.346;18.562;2022-09-01T05:14:40;1.50;;;0.60;;
57023;SDS011;42916;54.346;18.562;2022-09-01T05:17:10;1.30;;;0.80;;
57023;SDS011;42916;54.346;18.562;2022-09-01T05:19:39;1.70;;;0.50;;
57023;SDS011;42916;54.346;18.562;2022-09-01T05:22:07;1.30;;;0.50;;
57023;SDS011;42916;54.346;18.562;2022-09-01T05:24:39;1.00;;;0.70;;
57023;SDS011;42916;54.346;18.562;2022-09-01T05:27:06;1.40;;;0.60;;
57023;SDS011;42916;54.346;18.562;2022-09-01T05:29:36;1.00;;;0.70;;
57023;SDS011;42916;54.346;18.562;2022-09-01T05:32:06;3.00;;;0.70;;
57023;SDS011;42916;54.346;18.562;2022-09-01T05:34:39;2.40;;;0.60;;
57023;SDS011;42916;54.346;18.562;2022-09-01T05:37:08;0.80;;;0.60;;
57023;SDS011;42916;54.346;18.562;2022-09-01T05:39:38;1.70;;;0.90;;
57023;SDS011;42916;54.346;18.562;2022-09-01T05:42:05;1.40;;;0.80;;
57023;SDS011;42916;54.346;18.562;2022-09-01T05:44:38;0.50;;;0.50;;
57023;SDS011;42916;54.346;18.562;2022-09-01T05:47:10;1.40;;;0.80;;
57023;SDS011;42916;54.346;18.562;2022-09-01T05:49:41;0.70;;;0.60;;
57023;SDS011;42916;54.346;18.562;2022-09-01T05:52:09;2.80;;;0.80;;
57023;SDS011;42916;54.346;18.562;2022-09-01T05:54:37;2.90;;;0.90;;
57023;SDS011;42916;54.346;18.562;2022-09-01T05:57:04;1.00;;;0.80;;
57023;SDS011;42916;54.346;18.562;2022-09-01T05:59:32;1.80;;;0.70;;
57023;SDS011;42916;54.346;18.562;2022-09-01T06:02:10;2.70;;;0.70;;
57023;SDS011;42916;54.346;18.562;2022-09-01T06:04:37;1.00;;;0.60;;
57023;SDS011;42916;54.346;18.562;2022-09-01T06:07:12;1.80;;;0.40;;
57023;SDS011;42916;54.346;18.562;2022-09-01T06:09:44;1.10;;;0.50;;
57023;SDS011;42916;54.346;18.562;2022-09-01T06:12:14;0.60;;;0.50;;
57023;SDS011;42916;54.346;18.562;2022-09-01T06:14:50;0.90;;;0.50;;
57023;SDS011;42916;54.346;18.562;2022-09-01T06:17:19;0.90;;;0.50;;
57023;SDS011;42916;54.346;18.562;2022-09-01T06:19:53;1.30;;;0.60;;
57023;SDS011;42916;54.346;18.562;2022-09-01T06:22:21;1.10;;;0.40;;
57023;SDS011;42916;54.346;18.562;2022-09-01T06:24:50;1.40;;;0.50;;
57023;SDS011;42916;54.346;18.562;2022-09-01T06:27:20;1.60;;;0.50;;
57023;SDS011;42916;54.346;18.562;2022-09-01T06:29:47;2.60;;;0.60;;
57023;SDS011;42916;54.346;18.562;2022-09-01T06:32:23;1.70;;;0.50;;
57023;SDS011;42916;54.346;18.562;2022-09-01T06:34:51;0.90;;;0.50;;
57023;SDS011;42916;54.346;18.562;2022-09-01T06:37:18;0.80;;;0.40;;
57023;SDS011;42916;54.346;18.562;2022-09-01T06:39:49;1.60;;;0.50;;
57023;SDS011;42916;54.346;18.562;2022-09-01T06:42:16;0.80;;;0.40;;
57023;SDS011;42916;54.346;18.562;2022-09-01T06:44:51;5.40;;;0.40;;
57023;SDS011;42916;54.346;18.562;2022-09-01T06:47:18;1.40;;;0.50;;
57023;SDS011;42916;54.346;18.562;2022-09-01T06:49:45;1.50;;;0.50;;
57023;SDS011;42916;54.346;18.562;2022-09-01T06:52:17;1.40;;;0.40;;
57023;SDS011;42916;54.346;18.562;2022-09-01T06:57:14;1.40;;;0.70;;
57023;SDS011;42916;54.346;18.562;2022-09-01T06:59:41;0.50;;;0.30;;
57023;SDS011;42916;54.346;18.562;2022-09-01T07:02:07;2.40;;;0.50;;
57023;SDS011;42916;54.346;18.562;2022-09-01T07:04:55;1.20;;;0.50;;
57023;SDS011;42916;54.346;18.562;2022-09-01T07:07:22;1.20;;;0.30;;
57023;SDS011;42916;54.346;18.562;2022-09-01T07:10:15;1.10;;;0.40;;
57023;SDS011;42916;54.346;18.562;2022-09-01T07:12:55;0.90;;;0.60;;
57023;SDS011;42916;54.346;18.562;2022-09-01T07:15:27;2.20;;;0.50;;
57023;SDS011;42916;54.346;18.562;2022-09-01T07:17:56;0.40;;;0.40;;
57023;SDS011;42916;54.346;18.562;2022-09-01T07:20:24;1.40;;;0.40;;
57023;SDS011;42916;54.346;18.562;2022-09-01T07:22:55;0.90;;;0.50;;
57023;SDS011;42916;54.346;18.562;2022-09-01T07:25:22;1.90;;;0.50;;
57023;SDS011;42916;54.346;18.562;2022-09-01T07:28:07;2.00;;;0.40;;
57023;SDS011;42916;54.346;18.562;2022-09-01T07:30:40;1.70;;;0.60;;
57023;SDS011;42916;54.346;18.562;2022-09-01T07:33:09;1.20;;;0.60;;
57023;SDS011;42916;54.346;18.562;2022-09-01T07:35:38;1.60;;;0.40;;
57023;SDS011;42916;54.346;18.562;2022-09-01T07:38:06;2.20;;;0.40;;
57023;SDS011;42916;54.346;18.562;2022-09-01T07:40:36;1.00;;;0.50;;
57023;SDS011;42916;54.346;18.562;2022-09-01T07:43:39;0.50;;;0.40;;
57023;SDS011;42916;54.346;18.562;2022-09-01T07:46:28;2.80;;;0.60;;
57023;SDS011;42916;54.346;18.562;2022-09-01T07:48:59;1.40;;;0.60;;
57023;SDS011;42916;54.346;18.562;2022-09-01T07:51:28;0.90;;;0.60;;
57023;SDS011;42916;54.346;18.562;2022-09-01T07:53:57;0.80;;;0.50;;
57023;SDS011;42916;54.346;18.562;2022-09-01T07:56:24;1.40;;;0.60;;
57023;SDS011;42916;54.346;18.562;2022-09-01T07:58:51;2.00;;;0.50;;
57023;SDS011;42916;54.346;18.562;2022-09-01T08:01:20;4.60;;;0.70;;
57023;SDS011;42916;54.346;18.562;2022-09-01T08:03:50;2.30;;;0.80;;
57023;SDS011;42916;54.346;18.562;2022-09-01T08:06:21;1.40;;;0.70;;
57023;SDS011;42916;54.346;18.562;2022-09-01T08:08:52;1.90;;;0.80;;
57023;SDS011;42916;54.346;18.562;2022-09-01T08:11:22;1.80;;;0.60;;
57023;SDS011;42916;54.346;18.562;2022-09-01T08:13:52;1.10;;;0.80;;
57023;SDS011;42916;54.346;18.562;2022-09-01T08:16:20;1.60;;;0.70;;
57023;SDS011;42916;54.346;18.562;2022-09-01T08:21:26;3.50;;;0.60;;
57023;SDS011;42916;54.346;18.562;2022-09-01T08:23:59;1.80;;;0.40;;
57023;SDS011;42916;54.346;18.562;2022-09-01T08:26:27;0.60;;;0.30;;
57023;SDS011;42916;54.346;18.562;2022-09-01T08:28:54;2.30;;;0.50;;
57023;SDS011;42916;54.346;18.562;2022-09-01T08:31:28;0.50;;;0.40;;
57023;SDS011;42916;54.346;18.562;2022-09-01T08:33:55;0.90;;;0.60;;
57023;SDS011;42916;54.346;18.562;2022-09-01T08:36:22;0.30;;;0.30;;
57023;SDS011;42916;54.346;18.562;2022-09-01T08:38:49;0.50;;;0.40;;
57023;SDS011;42916;54.346;18.562;2022-09-01T08:41:18;1.50;;;0.40;;
57023;SDS011;42916;54.346;18.562;2022-09-01T08:46:45;0.50;;;0.50;;
57023;SDS011;42916;54.346;18.562;2022-09-01T08:52:10;0.90;;;0.40;;
57023;SDS011;42916;54.346;18.562;2022-09-01T08:54:47;1.00;;;0.40;;
57023;SDS011;42916;54.346;18.562;2022-09-01T08:57:36;2.30;;;0.60;;
57023;SDS011;42916;54.346;18.562;2022-09-01T09:00:38;0.50;;;0.30;;
57023;SDS011;42916;54.346;18.562;2022-09-01T09:06:12;0.80;;;0.40;;
57023;SDS011;42916;54.346;18.562;2022-09-01T09:14:13;0.90;;;0.30;;
57023;SDS011;42916;54.346;18.562;2022-09-01T09:16:58;2.50;;;0.30;;
57023;SDS011;42916;54.346;18.562;2022-09-01T09:21:59;1.10;;;0.40;;
57023;SDS011;42916;54.346;18.562;2022-09-01T09:24:28;2.70;;;0.40;;
57023;SDS011;42916;54.346;18.562;2022-09-01T09:27:31;1.20;;;0.30;;
57023;SDS011;42916;54.346;18.562;2022-09-01T09:30:05;2.80;;;0.50;;
57023;SDS011;42916;54.346;18.562;2022-09-01T09:32:46;1.20;;;0.30;;
57023;SDS011;42916;54.346;18.562;2022-09-01T09:35:27;1.20;;;0.40;;
57023;SDS011;42916;54.346;18.562;2022-09-01T09:43:26;0.50;;;0.40;;
57023;SDS011;42916;54.346;18.562;2022-09-01T09:51:47;1.40;;;0.40;;
57023;SDS011;42916;54.346;18.562;2022-09-01T09:57:05;1.90;;;0.60;;
57023;SDS011;42916;54.346;18.562;2022-09-01T09:59:35;0.70;;;0.40;;
57023;SDS011;42916;54.346;18.562;2022-09-01T10:04:54;1.20;;;0.30;;
57023;SDS011;42916;54.346;18.562;2022-09-01T10:07:33;1.00;;;0.30;;
57023;SDS011;42916;54.346;18.562;2022-09-01T10:12:30;1.20;;;0.50;;
57023;SDS011;42916;54.346;18.562;2022-09-01T10:15:05;3.20;;;0.40;;
57023;SDS011;42916;54.346;18.562;2022-09-01T10:17:35;0.90;;;0.40;;
57023;SDS011;42916;54.346;18.562;2022-09-01T10:20:11;1.30;;;0.30;;
57023;SDS011;42916;54.346;18.562;2022-09-01T10:22:40;0.40;;;0.30;;
57023;SDS011;42916;54.346;18.562;2022-09-01T10:25:07;0.80;;;0.40;;
57023;SDS011;42916;54.346;18.562;2022-09-01T10:27:39;1.70;;;0.60;;
57023;SDS011;42916;54.346;18.562;2022-09-01T10:32:45;1.10;;;0.50;;
57023;SDS011;42916;54.346;18.562;2022-09-01T10:35:22;1.20;;;0.50;;
57023;SDS011;42916;54.346;18.562;2022-09-01T10:37:50;0.80;;;0.50;;
57023;SDS011;42916;54.346;18.562;2022-09-01T10:42:54;5.00;;;0.50;;
57023;SDS011;42916;54.346;18.562;2022-09-01T10:45:33;3.70;;;1.10;;
57023;SDS011;42916;54.346;18.562;2022-09-01T10:50:46;4.50;;;0.80;;
57023;SDS011;42916;54.346;18.562;2022-09-01T10:56:04;2.00;;;0.60;;
57023;SDS011;42916;54.346;18.562;2022-09-01T11:07:03;1.60;;;0.50;;
57023;SDS011;42916;54.346;18.562;2022-09-01T11:09:35;1.30;;;0.50;;
57023;SDS011;42916;54.346;18.562;2022-09-01T11:17:25;0.20;;;0.20;;
57023;SDS011;42916;54.346;18.562;2022-09-01T11:28:05;0.30;;;0.20;;
57023;SDS011;42916;54.346;18.562;2022-09-01T11:36:25;1.60;;;0.50;;
57023;SDS011;42916;54.346;18.562;2022-09-01T11:41:54;0.70;;;0.40;;
57023;SDS011;42916;54.346;18.562;2022-09-01T11:44:23;0.70;;;0.30;;
57023;SDS011;42916;54.346;18.562;2022-09-01T11:46:53;0.40;;;0.30;;
57023;SDS011;42916;54.346;18.562;2022-09-01T11:51:56;0.40;;;0.40;;
57023;SDS011;42916;54.346;18.562;2022-09-01T11:54:25;1.40;;;0.40;;
57023;SDS011;42916;54.346;18.562;2022-09-01T11:56:53;0.70;;;0.20;;
57023;SDS011;42916;54.346;18.562;2022-09-01T11:59:32;0.60;;;0.30;;
57023;SDS011;42916;54.346;18.562;2022-09-01T12:02:01;1.60;;;0.30;;
57023;SDS011;42916;54.346;18.562;2022-09-01T12:04:30;1.50;;;0.40;;
57023;SDS011;42916;54.346;18.562;2022-09-01T12:07:03;0.40;;;0.40;;
57023;SDS011;42916;54.346;18.562;2022-09-01T12:09:37;1.80;;;0.30;;
57023;SDS011;42916;54.346;18.562;2022-09-01T12:12:07;2.00;;;0.40;;
57023;SDS011;42916;54.346;18.562;2022-09-01T12:14:57;0.40;;;0.30;;
57023;SDS011;42916;54.346;18.562;2022-09-01T12:17:29;0.60;;;0.30;;
57023;SDS011;42916;54.346;18.562;2022-09-01T12:20:14;2.50;;;0.30;;
57023;SDS011;42916;54.346;18.562;2022-09-01T12:22:45;1.20;;;0.20;;
57023;SDS011;42916;54.346;18.562;2022-09-01T12:25:22;0.40;;;0.30;;
57023;SDS011;42916;54.346;18.562;2022-09-01T12:27:51;2.40;;;0.30;;
57023;SDS011;42916;54.346;18.562;2022-09-01T12:30:18;0.70;;;0.40;;
57023;SDS011;42916;54.346;18.562;2022-09-01T12:32:46;0.60;;;0.40;;
57023;SDS011;42916;54.346;18.562;2022-09-01T12:35:24;1.30;;;0.50;;
57023;SDS011;42916;54.346;18.562;2022-09-01T12:38:12;1.70;;;0.30;;
57023;SDS011;42916;54.346;18.562;2022-09-01T12:40:45;0.60;;;0.20;;
57023;SDS011;42916;54.346;18.562;2022-09-01T12:43:34;0.30;;;0.30;;
57023;SDS011;42916;54.346;18.562;2022-09-01T12:46:04;0.60;;;0.40;;
57023;SDS011;42916;54.346;18.562;2022-09-01T12:51:02;0.90;;;0.40;;
57023;SDS011;42916;54.346;18.562;2022-09-01T12:53:48;1.80;;;0.30;;
57023;SDS011;42916;54.346;18.562;2022-09-01T12:59:09;0.90;;;0.30;;
57023;SDS011;42916;54.346;18.562;2022-09-01T13:01:39;0.60;;;0.20;;
57023;SDS011;42916;54.346;18.562;2022-09-01T13:07:01;0.50;;;0.20;;
57023;SDS011;42916;54.346;18.562;2022-09-01T13:09:30;2.10;;;0.30;;
57023;SDS011;42916;54.346;18.562;2022-09-01T13:12:10;0.50;;;0.30;;
57023;SDS011;42916;54.346;18.562;2022-09-01T13:14:46;0.30;;;0.20;;
57023;SDS011;42916;54.346;18.562;2022-09-01T13:17:13;1.20;;;0.30;;
57023;SDS011;42916;54.346;18.562;2022-09-01T13:19:41;0.60;;;0.30;;
57023;SDS011;42916;54.346;18.562;2022-09-01T13:22:07;1.10;;;0.30;;
57023;SDS011;42916;54.346;18.562;2022-09-01T13:24:34;0.40;;;0.20;;
57023;SDS011;42916;54.346;18.562;2022-09-01T13:27:01;0.80;;;0.30;;
57023;SDS011;42916;54.346;18.562;2022-09-01T13:29:27;1.10;;;0.30;;
57023;SDS011;42916;54.346;18.562;2022-09-01T13:31:54;0.70;;;0.30;;
57023;SDS011;42916;54.346;18.562;2022-09-01T13:34:21;1.00;;;0.20;;
57023;SDS011;42916;54.346;18.562;2022-09-01T13:36:47;0.80;;;0.40;;
57023;SDS011;42916;54.346;18.562;2022-09-01T13:39:14;1.00;;;0.30;;
57023;SDS011;42916;54.346;18.562;2022-09-01T13:41:40;1.10;;;0.40;;
57023;SDS011;42916;54.346;18.562;2022-09-01T13:44:07;0.60;;;0.30;;
57023;SDS011;42916;54.346;18.562;2022-09-01T13:46:35;1.30;;;0.30;;
57023;SDS011;42916;54.346;18.562;2022-09-01T13:49:02;1.50;;;0.30;;
57023;SDS011;42916;54.346;18.562;2022-09-01T13:51:28;0.30;;;0.20;;
57023;SDS011;42916;54.346;18.562;2022-09-01T13:53:55;1.30;;;0.20;;
57023;SDS011;42916;54.346;18.562;2022-09-01T13:56:21;1.40;;;0.30;;
57023;SDS011;42916;54.346;18.562;2022-09-01T13:58:48;0.60;;;0.20;;
57023;SDS011;42916;54.346;18.562;2022-09-01T14:01:14;0.90;;;0.20;;
57023;SDS011;42916;54.346;18.562;2022-09-01T14:03:41;3.50;;;0.40;;
57023;SDS011;42916;54.346;18.562;2022-09-01T14:06:09;3.30;;;0.60;;
57023;SDS011;42916;54.346;18.562;2022-09-01T14:08:35;1.90;;;0.40;;
57023;SDS011;42916;54.346;18.562;2022-09-01T14:11:02;1.10;;;0.30;;
57023;SDS011;42916;54.346;18.562;2022-09-01T14:13:29;1.80;;;0.30;;
57023;SDS011;42916;54.346;18.562;2022-09-01T14:15:56;2.10;;;0.50;;
57023;SDS011;42916;54.346;18.562;2022-09-01T14:18:24;1.00;;;0.30;;
57023;SDS011;42916;54.346;18.562;2022-09-01T14:20:58;1.40;;;0.30;;
57023;SDS011;42916;54.346;18.562;2022-09-01T14:25:53;1.30;;;0.10;;
57023;SDS011;42916;54.346;18.562;2022-09-01T14:28:20;0.60;;;0.30;;
57023;SDS011;42916;54.346;18.562;2022-09-01T14:30:48;0.50;;;0.20;;
57023;SDS011;42916;54.346;18.562;2022-09-01T14:33:16;0.20;;;0.20;;
57023;SDS011;42916;54.346;18.562;2022-09-01T14:35:45;1.80;;;0.20;;
57023;SDS011;42916;54.346;18.562;2022-09-01T14:38:13;0.40;;;0.10;;
57023;SDS011;42916;54.346;18.562;2022-09-01T14:40:41;0.30;;;0.10;;
57023;SDS011;42916;54.346;18.562;2022-09-01T14:43:12;1.50;;;0.30;;
57023;SDS011;42916;54.346;18.562;2022-09-01T14:45:39;1.70;;;0.40;;
57023;SDS011;42916;54.346;18.562;2022-09-01T14:48:14;0.80;;;0.30;;
57023;SDS011;42916;54.346;18.562;2022-09-01T14:50:44;0.50;;;0.20;;
57023;SDS011;42916;54.346;18.562;2022-09-01T14:53:12;0.70;;;0.30;;
57023;SDS011;42916;54.346;18.562;2022-09-01T14:55:40;0.30;;;0.20;;
57023;SDS011;42916;54.346;18.562;2022-09-01T14:58:07;1.20;;;0.30;;
57023;SDS011;42916;54.346;18.562;2022-09-01T15:00:33;0.90;;;0.30;;
57023;SDS011;42916;54.346;18.562;2022-09-01T15:03:04;0.80;;;0.40;;
57023;SDS011;42916;54.346;18.562;2022-09-01T15:05:30;1.90;;;0.40;;
57023;SDS011;42916;54.346;18.562;2022-09-01T15:07:57;1.20;;;0.20;;
57023;SDS011;42916;54.346;18.562;2022-09-01T15:10:24;0.40;;;0.30;;
57023;SDS011;42916;54.346;18.562;2022-09-01T15:12:53;1.50;;;0.20;;
57023;SDS011;42916;54.346;18.562;2022-09-01T15:15:21;1.90;;;0.30;;
57023;SDS011;42916;54.346;18.562;2022-09-01T15:17:48;0.10;;;0.10;;
57023;SDS011;42916;54.346;18.562;2022-09-01T15:20:15;1.60;;;0.30;;
57023;SDS011;42916;54.346;18.562;2022-09-01T15:23:00;0.50;;;0.20;;
57023;SDS011;42916;54.346;18.562;2022-09-01T15:25:27;0.80;;;0.30;;
57023;SDS011;42916;54.346;18.562;2022-09-01T15:27:53;1.50;;;0.40;;
57023;SDS011;42916;54.346;18.562;2022-09-01T15:30:20;0.70;;;0.40;;
57023;SDS011;42916;54.346;18.562;2022-09-01T15:32:48;2.10;;;0.50;;
57023;SDS011;42916;54.346;18.562;2022-09-01T15:35:17;1.50;;;0.60;;
57023;SDS011;42916;54.346;18.562;2022-09-01T15:37:45;1.80;;;1.00;;
57023;SDS011;42916;54.346;18.562;2022-09-01T15:40:15;2.80;;;1.00;;
57023;SDS011;42916;54.346;18.562;2022-09-01T15:42:42;1.90;;;0.90;;
57023;SDS011;42916;54.346;18.562;2022-09-01T15:45:11;1.80;;;1.00;;
57023;SDS011;42916;54.346;18.562;2022-09-01T15:47:40;3.20;;;1.10;;
57023;SDS011;42916;54.346;18.562;2022-09-01T15:50:08;2.20;;;0.90;;
57023;SDS011;42916;54.346;18.562;2022-09-01T15:52:49;1.90;;;0.60;;
57023;SDS011;42916;54.346;18.562;2022-09-01T15:55:22;1.20;;;0.60;;
57023;SDS011;42916;54.346;18.562;2022-09-01T15:58:15;2.30;;;0.40;;
57023;SDS011;42916;54.346;18.562;2022-09-01T16:00:43;1.00;;;0.50;;
57023;SDS011;42916;54.346;18.562;2022-09-01T16:03:11;0.50;;;0.40;;
57023;SDS011;42916;54.346;18.562;2022-09-01T16:05:38;2.10;;;0.40;;
57023;SDS011;42916;54.346;18.562;2022-09-01T16:08:06;1.60;;;0.80;;
57023;SDS011;42916;54.346;18.562;2022-09-01T16:13:03;2.80;;;0.70;;
57023;SDS011;42916;54.346;18.562;2022-09-01T16:15:29;2.00;;;0.60;;
57023;SDS011;42916;54.346;18.562;2022-09-01T16:18:12;0.60;;;0.40;;
57023;SDS011;42916;54.346;18.562;2022-09-01T16:24:07;0.90;;;0.50;;
57023;SDS011;42916;54.346;18.562;2022-09-01T16:26:36;1.60;;;0.40;;
57023;SDS011;42916;54.346;18.562;2022-09-01T16:29:11;0.30;;;0.30;;
57023;SDS011;42916;54.346;18.562;2022-09-01T16:31:44;1.50;;;0.60;;
57023;SDS011;42916;54.346;18.562;2022-09-01T16:34:16;1.10;;;0.50;;
57023;SDS011;42916;54.346;18.562;2022-09-01T16:36:51;0.50;;;0.40;;
57023;SDS011;42916;54.346;18.562;2022-09-01T16:45:43;0.40;;;0.30;;
57023;SDS011;42916;54.346;18.562;2022-09-01T16:48:33;2.40;;;0.40;;
57023;SDS011;42916;54.346;18.562;2022-09-01T16:56:53;0.50;;;0.50;;
57023;SDS011;42916;54.346;18.562;2022-09-01T17:04:52;0.70;;;0.40;;